sensor_id;sensor_type;location;lat;lon;timestamp;temperature;humidity
30467;DHT22;17258;52.560;13.046;2024-01-27T00:02:27;10.20;63.10
30467;DHT22;17258;52.560;13.046;2024-01-27T00:12:28;10.20;62.60
30467;DHT22;17258;52.560;13.046;2024-01-27T00:22:28;10.20;62.60
30467;DHT22;17258;52.560;13.046;2024-01-27T00:32:29;10.20;62.50
30467;DHT22;17258;52.560;13.046;2024-01-27T00:42:30;10.10;62.20
30467;DHT22;17258;52.560;13.046;2024-01-27T00:52:31;10.10;61.80
30467;DHT22;17258;52.560;13.046;2024-01-27T01:02:32;10.10;62.00
30467;DHT22;17258;52.560;13.046;2024-01-27T01:12:33;10.10;61.90
30467;DHT22;17258;52.560;13.046;2024-01-27T01:22:33;10.00;61.80
30467;DHT22;17258;52.560;13.046;2024-01-27T01:32:35;10.00;61.80
30467;DHT22;17258;52.560;13.046;2024-01-27T01:42:35;10.00;61.80
30467;DHT22;17258;52.560;13.046;2024-01-27T01:52:37;10.00;62.10
30467;DHT22;17258;52.560;13.046;2024-01-27T02:02:38;10.00;62.10
30467;DHT22;17258;52.560;13.046;2024-01-27T02:12:39;10.00;62.20
30467;DHT22;17258;52.560;13.046;2024-01-27T02:22:40;10.00;62.20
30467;DHT22;17258;52.560;13.046;2024-01-27T02:32:40;10.00;62.20
30467;DHT22;17258;52.560;13.046;2024-01-27T02:42:41;9.90;62.10
30467;DHT22;17258;52.560;13.046;2024-01-27T02:52:44;9.80;61.90
30467;DHT22;17258;52.560;13.046;2024-01-27T03:02:45;9.70;61.80
30467;DHT22;17258;52.560;13.046;2024-01-27T03:12:46;9.60;61.90
30467;DHT22;17258;52.560;13.046;2024-01-27T03:22:46;9.40;62.00
30467;DHT22;17258;52.560;13.046;2024-01-27T03:32:48;9.20;62.40
30467;DHT22;17258;52.560;13.046;2024-01-27T03:42:49;9.10;62.60
30467;DHT22;17258;52.560;13.046;2024-01-27T03:52:49;9.00;62.60
30467;DHT22;17258;52.560;13.046;2024-01-27T04:02:50;9.00;63.10
30467;DHT22;17258;52.560;13.046;2024-01-27T04:12:51;8.90;63.20
30467;DHT22;17258;52.560;13.046;2024-01-27T04:22:51;8.90;63.20
30467;DHT22;17258;52.560;13.046;2024-01-27T04:32:53;8.90;63.50
30467;DHT22;17258;52.560;13.046;2024-01-27T04:42:53;8.80;63.80
30467;DHT22;17258;52.560;13.046;2024-01-27T04:52:54;8.80;63.50
30467;DHT22;17258;52.560;13.046;2024-01-27T05:02:55;8.80;64.00
30467;DHT22;17258;52.560;13.046;2024-01-27T05:12:55;8.90;64.10
30467;DHT22;17258;52.560;13.046;2024-01-27T05:22:56;9.00;64.30
30467;DHT22;17258;52.560;13.046;2024-01-27T05:32:57;9.10;65.20
30467;DHT22;17258;52.560;13.046;2024-01-27T05:42:57;9.20;64.70
30467;DHT22;17258;52.560;13.046;2024-01-27T05:52:58;9.30;64.70
30467;DHT22;17258;52.560;13.046;2024-01-27T06:02:59;9.40;64.70
30467;DHT22;17258;52.560;13.046;2024-01-27T06:12:59;9.50;64.60
30467;DHT22;17258;52.560;13.046;2024-01-27T06:23:00;9.70;64.50
30467;DHT22;17258;52.560;13.046;2024-01-27T06:33:01;9.70;64.40
30467;DHT22;17258;52.560;13.046;2024-01-27T06:43:01;9.80;64.30
30467;DHT22;17258;52.560;13.046;2024-01-27T06:53:02;9.80;64.20
30467;DHT22;17258;52.560;13.046;2024-01-27T07:03:04;9.90;64.10
30467;DHT22;17258;52.560;13.046;2024-01-27T07:13:05;9.90;64.20
30467;DHT22;17258;52.560;13.046;2024-01-27T07:23:06;9.90;64.20
30467;DHT22;17258;52.560;13.046;2024-01-27T07:33:07;9.90;64.20
30467;DHT22;17258;52.560;13.046;2024-01-27T07:43:08;9.90;64.30
30467;DHT22;17258;52.560;13.046;2024-01-27T07:53:09;9.90;64.70
30467;DHT22;17258;52.560;13.046;2024-01-27T08:03:09;10.00;64.70
30467;DHT22;17258;52.560;13.046;2024-01-27T08:13:10;10.10;64.70
30467;DHT22;17258;52.560;13.046;2024-01-27T08:23:11;10.20;64.70
30467;DHT22;17258;52.560;13.046;2024-01-27T08:33:11;10.30;64.50
30467;DHT22;17258;52.560;13.046;2024-01-27T08:43:12;10.40;64.70
30467;DHT22;17258;52.560;13.046;2024-01-27T08:53:13;10.40;64.40
30467;DHT22;17258;52.560;13.046;2024-01-27T09:03:14;10.60;64.40
30467;DHT22;17258;52.560;13.046;2024-01-27T09:13:14;10.60;64.40
30467;DHT22;17258;52.560;13.046;2024-01-27T09:23:15;10.70;64.40
30467;DHT22;17258;52.560;13.046;2024-01-27T09:33:16;10.70;64.20
30467;DHT22;17258;52.560;13.046;2024-01-27T09:43:21;10.90;64.30
30467;DHT22;17258;52.560;13.046;2024-01-27T09:53:23;11.00;64.10
30467;DHT22;17258;52.560;13.046;2024-01-27T10:03:25;11.10;64.10
30467;DHT22;17258;52.560;13.046;2024-01-27T10:13:26;11.20;64.10
30467;DHT22;17258;52.560;13.046;2024-01-27T10:23:27;11.30;63.90
30467;DHT22;17258;52.560;13.046;2024-01-27T10:33:28;11.40;63.90
30467;DHT22;17258;52.560;13.046;2024-01-27T10:43:32;11.40;63.80
30467;DHT22;17258;52.560;13.046;2024-01-27T10:53:35;11.50;63.90
30467;DHT22;17258;52.560;13.046;2024-01-27T11:03:39;11.60;63.80
30467;DHT22;17258;52.560;13.046;2024-01-27T11:13:40;11.70;63.70
30467;DHT22;17258;52.560;13.046;2024-01-27T11:23:41;11.70;63.50
30467;DHT22;17258;52.560;13.046;2024-01-27T11:33:42;11.80;63.30
30467;DHT22;17258;52.560;13.046;2024-01-27T11:43:51;11.80;63.20
30467;DHT22;17258;52.560;13.046;2024-01-27T11:53:53;11.80;62.90
30467;DHT22;17258;52.560;13.046;2024-01-27T12:03:53;11.80;62.70
30467;DHT22;17258;52.560;13.046;2024-01-27T12:13:54;11.70;62.50
30467;DHT22;17258;52.560;13.046;2024-01-27T12:23:57;11.70;62.40
30467;DHT22;17258;52.560;13.046;2024-01-27T12:33:58;11.70;62.70
30467;DHT22;17258;52.560;13.046;2024-01-27T12:44:01;11.70;62.60
30467;DHT22;17258;52.560;13.046;2024-01-27T12:54:02;11.70;62.80
30467;DHT22;17258;52.560;13.046;2024-01-27T13:04:03;11.70;62.80
30467;DHT22;17258;52.560;13.046;2024-01-27T13:14:04;11.80;63.00
30467;DHT22;17258;52.560;13.046;2024-01-27T13:24:06;11.90;62.90
30467;DHT22;17258;52.560;13.046;2024-01-27T13:34:10;12.10;62.80
30467;DHT22;17258;52.560;13.046;2024-01-27T13:44:10;12.10;62.50
30467;DHT22;17258;52.560;13.046;2024-01-27T13:54:11;12.10;62.40
30467;DHT22;17258;52.560;13.046;2024-01-27T14:04:12;12.10;62.50
30467;DHT22;17258;52.560;13.046;2024-01-27T14:14:12;12.10;62.60
30467;DHT22;17258;52.560;13.046;2024-01-27T14:24:13;12.20;62.60
30467;DHT22;17258;52.560;13.046;2024-01-27T14:34:14;12.30;62.90
30467;DHT22;17258;52.560;13.046;2024-01-27T14:44:15;12.40;62.70
30467;DHT22;17258;52.560;13.046;2024-01-27T14:54:15;12.40;62.20
30467;DHT22;17258;52.560;13.046;2024-01-27T15:04:16;12.50;61.80
30467;DHT22;17258;52.560;13.046;2024-01-27T15:14:17;12.40;61.70
30467;DHT22;17258;52.560;13.046;2024-01-27T15:24:18;12.30;61.50
30467;DHT22;17258;52.560;13.046;2024-01-27T15:34:19;12.20;61.30
30467;DHT22;17258;52.560;13.046;2024-01-27T15:44:20;12.10;61.50
30467;DHT22;17258;52.560;13.046;2024-01-27T15:54:23;12.00;61.40
30467;DHT22;17258;52.560;13.046;2024-01-27T16:04:24;11.90;61.30
30467;DHT22;17258;52.560;13.046;2024-01-27T16:14:24;11.70;61.20
30467;DHT22;17258;52.560;13.046;2024-01-27T16:24:25;11.50;61.20
30467;DHT22;17258;52.560;13.046;2024-01-27T16:34:26;11.30;61.20
30467;DHT22;17258;52.560;13.046;2024-01-27T16:44:27;11.20;61.30
30467;DHT22;17258;52.560;13.046;2024-01-27T16:54:27;11.10;61.20
30467;DHT22;17258;52.560;13.046;2024-01-27T17:04:28;10.90;61.30
30467;DHT22;17258;52.560;13.046;2024-01-27T17:14:29;10.80;61.20
30467;DHT22;17258;52.560;13.046;2024-01-27T17:24:29;10.60;61.20
30467;DHT22;17258;52.560;13.046;2024-01-27T17:34:30;10.40;61.30
30467;DHT22;17258;52.560;13.046;2024-01-27T17:44:31;10.20;61.30
30467;DHT22;17258;52.560;13.046;2024-01-27T17:54:31;10.00;61.20
30467;DHT22;17258;52.560;13.046;2024-01-27T18:04:33;9.90;61.20
30467;DHT22;17258;52.560;13.046;2024-01-27T18:14:34;9.70;61.30
30467;DHT22;17258;52.560;13.046;2024-01-27T18:24:35;9.50;61.30
30467;DHT22;17258;52.560;13.046;2024-01-27T18:34:36;9.30;61.40
30467;DHT22;17258;52.560;13.046;2024-01-27T18:44:37;9.20;61.50
30467;DHT22;17258;52.560;13.046;2024-01-27T18:54:39;9.10;61.40
30467;DHT22;17258;52.560;13.046;2024-01-27T19:04:40;8.90;61.40
30467;DHT22;17258;52.560;13.046;2024-01-27T19:14:41;8.70;61.40
30467;DHT22;17258;52.560;13.046;2024-01-27T19:24:41;8.60;61.50
30467;DHT22;17258;52.560;13.046;2024-01-27T19:34:42;8.40;61.50
30467;DHT22;17258;52.560;13.046;2024-01-27T19:44:43;8.30;61.50
30467;DHT22;17258;52.560;13.046;2024-01-27T19:54:44;8.10;61.50
30467;DHT22;17258;52.560;13.046;2024-01-27T20:04:45;8.00;61.60
30467;DHT22;17258;52.560;13.046;2024-01-27T20:14:47;7.90;61.80
30467;DHT22;17258;52.560;13.046;2024-01-27T20:24:48;7.80;61.80
30467;DHT22;17258;52.560;13.046;2024-01-27T20:34:50;7.70;62.00
30467;DHT22;17258;52.560;13.046;2024-01-27T20:44:50;7.60;62.30
30467;DHT22;17258;52.560;13.046;2024-01-27T20:54:51;7.60;62.70
30467;DHT22;17258;52.560;13.046;2024-01-27T21:04:54;7.70;62.90
30467;DHT22;17258;52.560;13.046;2024-01-27T21:14:55;7.80;63.10
30467;DHT22;17258;52.560;13.046;2024-01-27T21:24:56;7.80;63.10
30467;DHT22;17258;52.560;13.046;2024-01-27T21:34:57;7.90;63.60
30467;DHT22;17258;52.560;13.046;2024-01-27T21:44:58;7.90;62.70
30467;DHT22;17258;52.560;13.046;2024-01-27T21:54:59;7.90;62.60
30467;DHT22;17258;52.560;13.046;2024-01-27T22:04:59;7.80;62.40
30467;DHT22;17258;52.560;13.046;2024-01-27T22:15:00;7.70;62.40
30467;DHT22;17258;52.560;13.046;2024-01-27T22:25:06;7.60;62.20
30467;DHT22;17258;52.560;13.046;2024-01-27T22:35:11;7.40;62.10
30467;DHT22;17258;52.560;13.046;2024-01-27T22:45:12;7.30;62.10
30467;DHT22;17258;52.560;13.046;2024-01-27T22:55:13;7.10;62.10
30467;DHT22;17258;52.560;13.046;2024-01-27T23:05:14;7.00;62.00
30467;DHT22;17258;52.560;13.046;2024-01-27T23:15:15;6.90;62.00
30467;DHT22;17258;52.560;13.046;2024-01-27T23:25:16;6.70;61.90
30467;DHT22;17258;52.560;13.046;2024-01-27T23:35:17;6.50;62.00
30467;DHT22;17258;52.560;13.046;2024-01-27T23:45:17;6.40;62.10
30467;DHT22;17258;52.560;13.046;2024-01-27T23:55:18;6.40;62.30
